sensor_id;sensor_type;location;lat;lon;timestamp;pressure;altitude;pressure_sealevel;temperature;humidity
71344;BME280;59146;43.850;25.948;2023-08-12T00:00:41;101487.38;;;21.41;57.89
71344;BME280;59146;43.850;25.948;2023-08-12T00:03:06;101451.69;;;21.24;57.40
71344;BME280;59146;43.850;25.948;2023-08-12T00:05:32;101471.84;;;21.36;57.06
71344;BME280;59146;43.850;25.948;2023-08-12T00:07:58;101501.78;;;21.58;57.34
71344;BME280;59146;43.850;25.948;2023-08-12T00:10:23;101448.78;;;21.27;56.47
71344;BME280;59146;43.850;25.948;2023-08-12T00:12:49;101539.63;;;21.80;56.65
71344;BME280;59146;43.850;25.948;2023-08-12T00:15:14;101520.00;;;21.72;56.58
71344;BME280;59146;43.850;25.948;2023-08-12T00:17:40;101477.72;;;21.50;56.99
71344;BME280;59146;43.850;25.948;2023-08-12T00:20:06;101533.63;;;21.88;56.77
71344;BME280;59146;43.850;25.948;2023-08-12T00:22:34;101506.84;;;21.70;57.06
71344;BME280;59146;43.850;25.948;2023-08-12T00:24:59;101473.13;;;21.52;56.61
71344;BME280;59146;43.850;25.948;2023-08-12T00:27:25;101453.53;;;21.43;56.69
71344;BME280;59146;43.850;25.948;2023-08-12T00:29:50;101476.34;;;21.65;56.72
71344;BME280;59146;43.850;25.948;2023-08-12T00:32:16;101426.13;;;21.43;56.27
71344;BME280;59146;43.850;25.948;2023-08-12T00:34:42;101545.78;;;22.09;56.20
71344;BME280;59146;43.850;25.948;2023-08-12T00:37:07;101495.13;;;21.92;56.55
71344;BME280;59146;43.850;25.948;2023-08-12T00:39:32;101515.28;;;21.94;56.45
71344;BME280;59146;43.850;25.948;2023-08-12T00:41:58;101510.91;;;21.93;56.58
71344;BME280;59146;43.850;25.948;2023-08-12T00:44:23;101481.38;;;21.77;56.48
71344;BME280;59146;43.850;25.948;2023-08-12T00:46:49;101521.41;;;22.04;56.77
71344;BME280;59146;43.850;25.948;2023-08-12T00:49:16;101468.78;;;21.51;57.69
71344;BME280;59146;43.850;25.948;2023-08-12T00:51:43;101471.31;;;21.43;57.98
71344;BME280;59146;43.850;25.948;2023-08-12T00:54:13;101450.59;;;21.27;58.26
71344;BME280;59146;43.850;25.948;2023-08-12T00:56:39;101525.59;;;21.69;57.86
71344;BME280;59146;43.850;25.948;2023-08-12T00:59:05;101414.16;;;20.89;58.45
71344;BME280;59146;43.850;25.948;2023-08-12T01:01:32;101462.31;;;21.15;58.75
71344;BME280;59146;43.850;25.948;2023-08-12T01:03:58;101479.38;;;21.03;59.65
71344;BME280;59146;43.850;25.948;2023-08-12T01:06:23;101528.19;;;21.30;60.03
71344;BME280;59146;43.850;25.948;2023-08-12T01:08:49;101472.56;;;20.80;59.90
71344;BME280;59146;43.850;25.948;2023-08-12T01:11:28;101520.78;;;21.24;59.62
71344;BME280;59146;43.850;25.948;2023-08-12T01:14:00;101544.19;;;21.40;59.33
71344;BME280;59146;43.850;25.948;2023-08-12T01:16:30;101480.09;;;20.84;60.29
71344;BME280;59146;43.850;25.948;2023-08-12T01:18:58;101535.41;;;21.09;60.50
71344;BME280;59146;43.850;25.948;2023-08-12T01:21:24;101543.38;;;21.09;60.49
71344;BME280;59146;43.850;25.948;2023-08-12T01:23:50;101516.91;;;20.98;60.38
71344;BME280;59146;43.850;25.948;2023-08-12T01:26:15;101450.38;;;20.50;60.74
71344;BME280;59146;43.850;25.948;2023-08-12T01:28:41;101508.50;;;20.93;60.50
71344;BME280;59146;43.850;25.948;2023-08-12T01:31:15;101421.22;;;20.30;60.65
71344;BME280;59146;43.850;25.948;2023-08-12T01:34:14;101539.22;;;21.16;60.72
71344;BME280;59146;43.850;25.948;2023-08-12T01:36:46;101492.97;;;20.89;60.53
71344;BME280;59146;43.850;25.948;2023-08-12T01:39:16;101516.63;;;21.01;60.56
71344;BME280;59146;43.850;25.948;2023-08-12T01:41:45;101464.91;;;20.56;61.18
71344;BME280;59146;43.850;25.948;2023-08-12T01:44:11;101548.19;;;21.15;60.20
71344;BME280;59146;43.850;25.948;2023-08-12T01:46:36;101395.72;;;20.18;59.95
71344;BME280;59146;43.850;25.948;2023-08-12T01:49:02;101347.06;;;19.98;60.33
71344;BME280;59146;43.850;25.948;2023-08-12T01:51:29;101495.50;;;20.90;59.98
71344;BME280;59146;43.850;25.948;2023-08-12T01:53:54;101552.41;;;21.27;60.14
71344;BME280;59146;43.850;25.948;2023-08-12T01:56:20;101459.94;;;20.72;59.90
71344;BME280;59146;43.850;25.948;2023-08-12T01:58:45;101512.16;;;20.92;60.30
71344;BME280;59146;43.850;25.948;2023-08-12T02:01:10;101524.28;;;20.85;61.52
71344;BME280;59146;43.850;25.948;2023-08-12T02:03:36;101552.59;;;20.75;62.34
71344;BME280;59146;43.850;25.948;2023-08-12T02:06:01;101509.25;;;20.44;63.24
71344;BME280;59146;43.850;25.948;2023-08-12T02:08:29;101569.78;;;20.71;62.98
71344;BME280;59146;43.850;25.948;2023-08-12T02:10:54;101562.41;;;20.54;63.33
71344;BME280;59146;43.850;25.948;2023-08-12T02:13:20;101567.19;;;20.60;63.29
71344;BME280;59146;43.850;25.948;2023-08-12T02:15:45;101523.03;;;20.18;63.80
71344;BME280;59146;43.850;25.948;2023-08-12T02:18:11;101499.63;;;20.02;63.63
71344;BME280;59146;43.850;25.948;2023-08-12T02:20:36;101510.22;;;19.81;64.38
71344;BME280;59146;43.850;25.948;2023-08-12T02:23:02;101583.47;;;20.25;64.66
71344;BME280;59146;43.850;25.948;2023-08-12T02:25:27;101529.09;;;19.88;65.17
71344;BME280;59146;43.850;25.948;2023-08-12T02:27:52;101540.38;;;20.01;64.88
71344;BME280;59146;43.850;25.948;2023-08-12T02:30:18;101499.94;;;19.88;63.84
71344;BME280;59146;43.850;25.948;2023-08-12T02:32:43;101517.88;;;19.96;64.50
71344;BME280;59146;43.850;25.948;2023-08-12T02:35:09;101542.09;;;20.23;64.08
71344;BME280;59146;43.850;25.948;2023-08-12T02:37:35;101507.66;;;20.12;62.49
71344;BME280;59146;43.850;25.948;2023-08-12T02:40:01;101562.13;;;20.57;61.96
71344;BME280;59146;43.850;25.948;2023-08-12T02:42:29;101569.88;;;20.70;60.92
71344;BME280;59146;43.850;25.948;2023-08-12T02:44:55;101511.09;;;20.44;61.79
71344;BME280;59146;43.850;25.948;2023-08-12T02:47:21;101583.78;;;20.83;61.51
71344;BME280;59146;43.850;25.948;2023-08-12T02:49:47;101542.59;;;20.58;61.90
71344;BME280;59146;43.850;25.948;2023-08-12T02:52:13;101539.44;;;20.43;62.26
71344;BME280;59146;43.850;25.948;2023-08-12T02:54:38;101565.84;;;20.45;62.80
71344;BME280;59146;43.850;25.948;2023-08-12T02:57:04;101576.03;;;20.40;62.95
71344;BME280;59146;43.850;25.948;2023-08-12T02:59:29;101587.97;;;20.34;63.05
71344;BME280;59146;43.850;25.948;2023-08-12T03:01:55;101575.38;;;20.27;63.10
71344;BME280;59146;43.850;25.948;2023-08-12T03:04:20;101524.41;;;20.12;62.42
71344;BME280;59146;43.850;25.948;2023-08-12T03:06:46;101581.41;;;20.59;61.73
71344;BME280;59146;43.850;25.948;2023-08-12T03:09:11;101541.00;;;20.46;61.30
71344;BME280;59146;43.850;25.948;2023-08-12T03:11:36;101506.38;;;20.27;61.72
71344;BME280;59146;43.850;25.948;2023-08-12T03:14:02;101581.28;;;20.81;60.60
71344;BME280;59146;43.850;25.948;2023-08-12T03:16:27;101548.53;;;20.71;60.85
71344;BME280;59146;43.850;25.948;2023-08-12T03:18:53;101505.78;;;20.44;61.34
71344;BME280;59146;43.850;25.948;2023-08-12T03:21:18;101599.19;;;20.89;61.46
71344;BME280;59146;43.850;25.948;2023-08-12T03:23:43;101553.53;;;20.65;61.49
71344;BME280;59146;43.850;25.948;2023-08-12T03:26:09;101581.53;;;20.78;61.65
71344;BME280;59146;43.850;25.948;2023-08-12T03:28:35;101559.16;;;20.71;60.89
71344;BME280;59146;43.850;25.948;2023-08-12T03:31:00;101594.50;;;21.02;60.83
71344;BME280;59146;43.850;25.948;2023-08-12T03:33:25;101543.09;;;20.73;61.18
71344;BME280;59146;43.850;25.948;2023-08-12T03:35:51;101573.91;;;21.24;60.70
71344;BME280;59146;43.850;25.948;2023-08-12T03:38:16;101588.19;;;22.01;58.18
71344;BME280;59146;43.850;25.948;2023-08-12T03:40:42;101553.94;;;22.54;55.57
71344;BME280;59146;43.850;25.948;2023-08-12T03:43:08;101543.53;;;23.07;52.92
71344;BME280;59146;43.850;25.948;2023-08-12T03:45:40;101541.31;;;23.57;52.57
71344;BME280;59146;43.850;25.948;2023-08-12T03:48:06;101584.31;;;24.24;50.76
71344;BME280;59146;43.850;25.948;2023-08-12T03:50:35;101572.50;;;24.27;50.64
71344;BME280;59146;43.850;25.948;2023-08-12T03:53:01;101547.50;;;24.62;48.47
71344;BME280;59146;43.850;25.948;2023-08-12T03:55:26;101609.66;;;25.23;47.10
71344;BME280;59146;43.850;25.948;2023-08-12T03:57:52;101541.63;;;25.59;45.04
71344;BME280;59146;43.850;25.948;2023-08-12T04:00:18;101588.47;;;25.87;45.05
71344;BME280;59146;43.850;25.948;2023-08-12T04:02:43;101593.19;;;26.34;44.14
71344;BME280;59146;43.850;25.948;2023-08-12T04:05:09;101613.41;;;26.93;42.86
71344;BME280;59146;43.850;25.948;2023-08-12T04:07:36;101547.81;;;27.11;41.66
71344;BME280;59146;43.850;25.948;2023-08-12T04:10:02;101563.47;;;27.30;41.25
71344;BME280;59146;43.850;25.948;2023-08-12T04:12:27;101570.84;;;27.90;40.03
71344;BME280;59146;43.850;25.948;2023-08-12T04:14:53;101561.16;;;28.26;39.29
71344;BME280;59146;43.850;25.948;2023-08-12T04:17:25;101583.03;;;29.19;38.83
71344;BME280;59146;43.850;25.948;2023-08-12T04:19:51;101561.09;;;29.51;38.41
71344;BME280;59146;43.850;25.948;2023-08-12T04:22:16;101580.53;;;29.02;38.99
71344;BME280;59146;43.850;25.948;2023-08-12T04:24:42;101638.22;;;29.44;39.20
71344;BME280;59146;43.850;25.948;2023-08-12T04:27:07;101630.41;;;29.49;38.87
71344;BME280;59146;43.850;25.948;2023-08-12T04:29:32;101616.97;;;29.49;37.63
71344;BME280;59146;43.850;25.948;2023-08-12T04:31:58;101512.25;;;29.18;37.12
71344;BME280;59146;43.850;25.948;2023-08-12T04:34:23;101627.06;;;29.97;36.42
71344;BME280;59146;43.850;25.948;2023-08-12T04:36:49;101591.25;;;29.82;36.48
71344;BME280;59146;43.850;25.948;2023-08-12T04:39:14;101606.78;;;30.43;35.30
71344;BME280;59146;43.850;25.948;2023-08-12T04:41:39;101587.44;;;29.91;36.15
71344;BME280;59146;43.850;25.948;2023-08-12T04:44:05;101578.59;;;30.46;34.97
71344;BME280;59146;43.850;25.948;2023-08-12T04:46:31;101586.97;;;30.57;34.77
71344;BME280;59146;43.850;25.948;2023-08-12T04:48:57;101593.69;;;30.96;34.07
71344;BME280;59146;43.850;25.948;2023-08-12T04:51:22;101582.97;;;30.47;34.72
71344;BME280;59146;43.850;25.948;2023-08-12T04:53:48;101585.53;;;31.30;33.48
71344;BME280;59146;43.850;25.948;2023-08-12T04:56:13;101595.50;;;30.61;35.17
71344;BME280;59146;43.850;25.948;2023-08-12T04:58:38;101628.31;;;31.33;33.36
71344;BME280;59146;43.850;25.948;2023-08-12T05:01:04;101566.03;;;30.59;33.73
71344;BME280;59146;43.850;25.948;2023-08-12T05:03:29;101609.84;;;29.77;35.36
71344;BME280;59146;43.850;25.948;2023-08-12T05:05:55;101593.59;;;29.20;37.50
71344;BME280;59146;43.850;25.948;2023-08-12T05:08:20;101654.50;;;30.71;35.16
71344;BME280;59146;43.850;25.948;2023-08-12T05:10:49;101644.94;;;31.02;34.16
71344;BME280;59146;43.850;25.948;2023-08-12T05:13:15;101592.88;;;29.26;37.79
71344;BME280;59146;43.850;25.948;2023-08-12T05:15:40;101617.78;;;29.85;36.45
71344;BME280;59146;43.850;25.948;2023-08-12T05:18:06;101581.06;;;29.27;37.17
71344;BME280;59146;43.850;25.948;2023-08-12T05:20:32;101612.31;;;29.57;36.82
71344;BME280;59146;43.850;25.948;2023-08-12T05:22:57;101598.25;;;29.62;37.21
71344;BME280;59146;43.850;25.948;2023-08-12T05:25:23;101580.28;;;28.46;38.36
71344;BME280;59146;43.850;25.948;2023-08-12T05:27:49;101622.75;;;29.17;38.22
71344;BME280;59146;43.850;25.948;2023-08-12T05:30:15;101642.41;;;29.17;37.72
71344;BME280;59146;43.850;25.948;2023-08-12T05:32:40;101643.59;;;30.15;36.02
71344;BME280;59146;43.850;25.948;2023-08-12T05:35:06;101632.03;;;30.21;37.27
71344;BME280;59146;43.850;25.948;2023-08-12T05:37:32;101623.81;;;28.78;39.84
71344;BME280;59146;43.850;25.948;2023-08-12T05:39:57;101611.75;;;29.47;37.87
71344;BME280;59146;43.850;25.948;2023-08-12T05:42:22;101591.00;;;28.97;37.19
71344;BME280;59146;43.850;25.948;2023-08-12T05:44:48;101654.69;;;28.82;37.71
71344;BME280;59146;43.850;25.948;2023-08-12T05:47:13;101591.78;;;28.54;37.95
71344;BME280;59146;43.850;25.948;2023-08-12T05:49:38;101600.38;;;29.16;36.33
71344;BME280;59146;43.850;25.948;2023-08-12T05:52:04;101646.53;;;28.53;38.36
71344;BME280;59146;43.850;25.948;2023-08-12T05:54:30;101662.75;;;28.45;38.49
71344;BME280;59146;43.850;25.948;2023-08-12T05:56:55;101635.78;;;28.61;38.18
71344;BME280;59146;43.850;25.948;2023-08-12T05:59:21;101586.59;;;28.53;37.67
71344;BME280;59146;43.850;25.948;2023-08-12T06:01:46;101639.13;;;28.63;37.77
71344;BME280;59146;43.850;25.948;2023-08-12T06:04:12;101645.53;;;29.06;37.54
71344;BME280;59146;43.850;25.948;2023-08-12T06:06:37;101633.34;;;28.66;37.62
71344;BME280;59146;43.850;25.948;2023-08-12T06:09:03;101631.28;;;27.08;41.02
71344;BME280;59146;43.850;25.948;2023-08-12T06:11:28;101647.19;;;27.57;39.88
71344;BME280;59146;43.850;25.948;2023-08-12T06:13:54;101647.19;;;27.87;39.61
71344;BME280;59146;43.850;25.948;2023-08-12T06:16:19;101656.59;;;28.59;38.80
71344;BME280;59146;43.850;25.948;2023-08-12T06:18:44;101598.31;;;27.38;39.47
71344;BME280;59146;43.850;25.948;2023-08-12T06:21:10;101651.59;;;27.80;39.63
71344;BME280;59146;43.850;25.948;2023-08-12T06:23:35;101663.94;;;27.67;39.87
71344;BME280;59146;43.850;25.948;2023-08-12T06:26:01;101675.38;;;27.61;40.25
71344;BME280;59146;43.850;25.948;2023-08-12T06:28:26;101610.88;;;27.46;39.77
71344;BME280;59146;43.850;25.948;2023-08-12T06:30:52;101634.28;;;28.13;38.82
71344;BME280;59146;43.850;25.948;2023-08-12T06:33:18;101600.25;;;27.52;39.38
71344;BME280;59146;43.850;25.948;2023-08-12T06:35:44;101650.44;;;26.89;41.17
71344;BME280;59146;43.850;25.948;2023-08-12T06:38:09;101628.31;;;26.79;41.06
71344;BME280;59146;43.850;25.948;2023-08-12T06:40:38;101614.78;;;26.48;41.61
71344;BME280;59146;43.850;25.948;2023-08-12T06:43:04;101601.88;;;26.76;40.67
71344;BME280;59146;43.850;25.948;2023-08-12T06:45:29;101583.78;;;26.62;40.74
71344;BME280;59146;43.850;25.948;2023-08-12T06:47:55;101620.19;;;27.11;40.15
71344;BME280;59146;43.850;25.948;2023-08-12T06:50:20;101619.59;;;26.69;40.63
71344;BME280;59146;43.850;25.948;2023-08-12T06:52:46;101634.44;;;27.12;39.97
71344;BME280;59146;43.850;25.948;2023-08-12T06:55:11;101566.38;;;27.13;39.44
71344;BME280;59146;43.850;25.948;2023-08-12T06:57:37;101576.53;;;27.33;39.36
71344;BME280;59146;43.850;25.948;2023-08-12T07:00:03;101612.25;;;27.95;38.15
71344;BME280;59146;43.850;25.948;2023-08-12T07:02:30;101597.38;;;28.30;37.96
71344;BME280;59146;43.850;25.948;2023-08-12T07:04:56;101659.31;;;28.14;37.87
71344;BME280;59146;43.850;25.948;2023-08-12T07:07:21;101650.34;;;28.81;36.89
71344;BME280;59146;43.850;25.948;2023-08-12T07:09:46;101604.00;;;28.79;36.08
71344;BME280;59146;43.850;25.948;2023-08-12T07:12:12;101612.41;;;29.05;36.07
71344;BME280;59146;43.850;25.948;2023-08-12T07:14:37;101601.50;;;28.92;36.47
71344;BME280;59146;43.850;25.948;2023-08-12T07:17:03;101597.50;;;28.51;36.55
71344;BME280;59146;43.850;25.948;2023-08-12T07:19:28;101627.47;;;28.03;37.97
71344;BME280;59146;43.850;25.948;2023-08-12T07:21:54;101523.00;;;27.71;37.16
71344;BME280;59146;43.850;25.948;2023-08-12T07:24:19;101631.59;;;28.36;37.30
71344;BME280;59146;43.850;25.948;2023-08-12T07:26:44;101641.84;;;28.92;38.92
71344;BME280;59146;43.850;25.948;2023-08-12T07:29:10;101584.13;;;29.24;38.20
71344;BME280;59146;43.850;25.948;2023-08-12T07:31:35;101641.72;;;29.73;35.51
71344;BME280;59146;43.850;25.948;2023-08-12T07:34:01;101636.84;;;29.19;35.99
71344;BME280;59146;43.850;25.948;2023-08-12T07:36:26;101638.69;;;29.33;35.88
71344;BME280;59146;43.850;25.948;2023-08-12T07:38:51;101589.72;;;29.23;35.85
71344;BME280;59146;43.850;25.948;2023-08-12T07:41:17;101563.28;;;29.26;37.12
71344;BME280;59146;43.850;25.948;2023-08-12T07:43:42;101585.91;;;29.67;36.45
71344;BME280;59146;43.850;25.948;2023-08-12T07:46:08;101567.78;;;29.40;36.96
71344;BME280;59146;43.850;25.948;2023-08-12T07:48:33;101627.41;;;29.73;37.22
71344;BME280;59146;43.850;25.948;2023-08-12T07:50:59;101591.53;;;29.37;38.15
71344;BME280;59146;43.850;25.948;2023-08-12T07:53:25;101594.22;;;29.37;37.95
71344;BME280;59146;43.850;25.948;2023-08-12T07:55:50;101598.41;;;29.39;37.87
71344;BME280;59146;43.850;25.948;2023-08-12T07:58:16;101574.22;;;28.95;37.83
71344;BME280;59146;43.850;25.948;2023-08-12T08:00:41;101528.00;;;28.19;37.18
71344;BME280;59146;43.850;25.948;2023-08-12T08:03:07;101616.88;;;28.69;37.28
71344;BME280;59146;43.850;25.948;2023-08-12T08:05:32;101584.97;;;28.81;36.70
71344;BME280;59146;43.850;25.948;2023-08-12T08:07:58;101627.16;;;29.09;36.78
71344;BME280;59146;43.850;25.948;2023-08-12T08:10:23;101567.25;;;28.72;38.09
71344;BME280;59146;43.850;25.948;2023-08-12T08:12:49;101577.47;;;28.76;37.94
71344;BME280;59146;43.850;25.948;2023-08-12T08:15:14;101588.19;;;28.62;38.33
71344;BME280;59146;43.850;25.948;2023-08-12T08:17:39;101569.81;;;28.36;38.37
71344;BME280;59146;43.850;25.948;2023-08-12T08:20:05;101617.09;;;28.22;39.41
71344;BME280;59146;43.850;25.948;2023-08-12T08:22:31;101577.19;;;27.97;39.93
71344;BME280;59146;43.850;25.948;2023-08-12T08:24:57;101580.28;;;27.86;40.73
71344;BME280;59146;43.850;25.948;2023-08-12T08:27:22;101610.69;;;27.78;40.30
71344;BME280;59146;43.850;25.948;2023-08-12T08:29:48;101599.81;;;27.41;40.64
71344;BME280;59146;43.850;25.948;2023-08-12T08:32:14;101577.91;;;27.21;40.75
71344;BME280;59146;43.850;25.948;2023-08-12T08:34:40;101543.31;;;27.04;40.78
71344;BME280;59146;43.850;25.948;2023-08-12T08:37:05;101568.13;;;27.06;41.24
71344;BME280;59146;43.850;25.948;2023-08-12T08:39:31;101619.16;;;27.20;42.49
71344;BME280;59146;43.850;25.948;2023-08-12T08:41:58;101612.78;;;27.21;42.56
71344;BME280;59146;43.850;25.948;2023-08-12T08:44:28;101597.34;;;27.31;41.45
71344;BME280;59146;43.850;25.948;2023-08-12T08:46:55;101620.13;;;27.27;41.73
71344;BME280;59146;43.850;25.948;2023-08-12T08:49:21;101556.22;;;27.08;40.33
71344;BME280;59146;43.850;25.948;2023-08-12T08:51:48;101573.88;;;26.87;41.76
71344;BME280;59146;43.850;25.948;2023-08-12T08:54:15;101593.75;;;27.08;41.87
71344;BME280;59146;43.850;25.948;2023-08-12T08:56:40;101555.97;;;26.87;41.79
71344;BME280;59146;43.850;25.948;2023-08-12T08:59:06;101550.88;;;26.92;42.03
71344;BME280;59146;43.850;25.948;2023-08-12T09:01:32;101594.06;;;27.52;41.33
71344;BME280;59146;43.850;25.948;2023-08-12T09:03:58;101532.31;;;27.21;41.61
71344;BME280;59146;43.850;25.948;2023-08-12T09:06:25;101554.81;;;27.51;40.75
71344;BME280;59146;43.850;25.948;2023-08-12T09:08:54;101548.38;;;27.29;41.75
71344;BME280;59146;43.850;25.948;2023-08-12T09:11:20;101450.09;;;26.75;41.34
71344;BME280;59146;43.850;25.948;2023-08-12T09:13:46;101529.97;;;27.26;40.56
71344;BME280;59146;43.850;25.948;2023-08-12T09:16:12;101545.50;;;27.39;40.76
71344;BME280;59146;43.850;25.948;2023-08-12T09:18:37;101583.19;;;27.76;40.54
71344;BME280;59146;43.850;25.948;2023-08-12T09:21:04;101565.41;;;27.44;40.77
71344;BME280;59146;43.850;25.948;2023-08-12T09:23:37;101562.88;;;27.51;40.87
71344;BME280;59146;43.850;25.948;2023-08-12T09:26:03;101557.69;;;27.49;39.93
71344;BME280;59146;43.850;25.948;2023-08-12T09:28:36;101575.19;;;27.68;40.58
71344;BME280;59146;43.850;25.948;2023-08-12T09:31:01;101520.22;;;27.25;41.52
71344;BME280;59146;43.850;25.948;2023-08-12T09:33:27;101523.41;;;27.29;41.49
71344;BME280;59146;43.850;25.948;2023-08-12T09:35:53;101563.00;;;27.58;41.07
71344;BME280;59146;43.850;25.948;2023-08-12T09:38:21;101544.09;;;27.74;39.55
71344;BME280;59146;43.850;25.948;2023-08-12T09:40:47;101531.91;;;27.71;39.82
71344;BME280;59146;43.850;25.948;2023-08-12T09:43:13;101568.25;;;28.04;38.87
71344;BME280;59146;43.850;25.948;2023-08-12T09:45:38;101546.44;;;27.77;39.71
71344;BME280;59146;43.850;25.948;2023-08-12T09:48:04;101503.56;;;27.69;39.66
71344;BME280;59146;43.850;25.948;2023-08-12T09:50:29;101535.63;;;28.07;38.73
71344;BME280;59146;43.850;25.948;2023-08-12T09:52:56;101536.31;;;28.24;38.52
71344;BME280;59146;43.850;25.948;2023-08-12T09:55:23;101536.81;;;28.27;38.44
71344;BME280;59146;43.850;25.948;2023-08-12T09:57:53;101492.22;;;28.04;38.00
71344;BME280;59146;43.850;25.948;2023-08-12T10:00:20;101467.41;;;27.79;39.83
71344;BME280;59146;43.850;25.948;2023-08-12T10:02:48;101541.91;;;28.37;38.42
71344;BME280;59146;43.850;25.948;2023-08-12T10:05:19;101542.91;;;28.21;38.03
71344;BME280;59146;43.850;25.948;2023-08-12T10:07:47;101536.69;;;28.21;38.34
71344;BME280;59146;43.850;25.948;2023-08-12T10:10:14;101534.41;;;28.47;38.04
71344;BME280;59146;43.850;25.948;2023-08-12T10:12:39;101519.03;;;28.41;38.11
71344;BME280;59146;43.850;25.948;2023-08-12T10:15:06;101457.94;;;28.06;37.21
71344;BME280;59146;43.850;25.948;2023-08-12T10:17:33;101517.94;;;28.50;37.99
71344;BME280;59146;43.850;25.948;2023-08-12T10:20:00;101473.34;;;28.26;38.35
71344;BME280;59146;43.850;25.948;2023-08-12T10:22:29;101489.03;;;28.67;37.33
71344;BME280;59146;43.850;25.948;2023-08-12T10:24:54;101502.47;;;28.81;36.84
71344;BME280;59146;43.850;25.948;2023-08-12T10:27:21;101511.94;;;28.77;36.62
71344;BME280;59146;43.850;25.948;2023-08-12T10:29:46;101476.03;;;28.56;37.18
71344;BME280;59146;43.850;25.948;2023-08-12T10:32:13;101514.88;;;28.82;37.46
71344;BME280;59146;43.850;25.948;2023-08-12T10:34:39;101511.81;;;28.85;36.06
71344;BME280;59146;43.850;25.948;2023-08-12T10:37:04;101439.44;;;28.69;35.86
71344;BME280;59146;43.850;25.948;2023-08-12T10:39:34;101495.66;;;29.00;35.92
71344;BME280;59146;43.850;25.948;2023-08-12T10:41:59;101458.69;;;28.87;35.34
71344;BME280;59146;43.850;25.948;2023-08-12T10:44:49;101510.13;;;29.14;35.38
71344;BME280;59146;43.850;25.948;2023-08-12T10:47:16;101486.28;;;29.11;35.21
71344;BME280;59146;43.850;25.948;2023-08-12T10:49:48;101468.81;;;28.85;35.87
71344;BME280;59146;43.850;25.948;2023-08-12T10:52:30;101460.75;;;28.85;35.00
71344;BME280;59146;43.850;25.948;2023-08-12T10:57:43;101483.22;;;29.14;35.54
71344;BME280;59146;43.850;25.948;2023-08-12T11:00:25;101454.25;;;28.94;35.01
71344;BME280;59146;43.850;25.948;2023-08-12T11:02:57;101444.69;;;28.92;34.85
71344;BME280;59146;43.850;25.948;2023-08-12T11:05:24;101327.06;;;28.29;34.68
71344;BME280;59146;43.850;25.948;2023-08-12T11:07:57;101450.44;;;29.25;34.27
71344;BME280;59146;43.850;25.948;2023-08-12T11:10:26;101444.19;;;29.39;34.30
71344;BME280;59146;43.850;25.948;2023-08-12T11:15:17;101466.38;;;29.41;34.02
71344;BME280;59146;43.850;25.948;2023-08-12T11:17:45;101446.88;;;29.39;33.34
71344;BME280;59146;43.850;25.948;2023-08-12T11:20:12;101467.50;;;29.32;34.13
71344;BME280;59146;43.850;25.948;2023-08-12T11:22:42;101420.72;;;29.12;33.68
71344;BME280;59146;43.850;25.948;2023-08-12T11:25:09;101445.06;;;29.46;33.60
71344;BME280;59146;43.850;25.948;2023-08-12T11:30:07;101415.22;;;29.20;33.82
71344;BME280;59146;43.850;25.948;2023-08-12T11:32:32;101455.56;;;29.62;33.39
71344;BME280;59146;43.850;25.948;2023-08-12T11:34:58;101471.63;;;29.70;33.33
71344;BME280;59146;43.850;25.948;2023-08-12T11:37:24;101456.88;;;29.66;32.63
71344;BME280;59146;43.850;25.948;2023-08-12T11:39:52;101340.38;;;28.87;32.63
71344;BME280;59146;43.850;25.948;2023-08-12T11:42:17;101357.41;;;29.37;32.50
71344;BME280;59146;43.850;25.948;2023-08-12T11:44:43;101347.81;;;29.49;31.73
71344;BME280;59146;43.850;25.948;2023-08-12T11:47:09;101408.72;;;29.56;31.72
71344;BME280;59146;43.850;25.948;2023-08-12T11:49:34;101367.16;;;29.38;31.84
71344;BME280;59146;43.850;25.948;2023-08-12T11:51:59;101411.78;;;29.47;32.72
71344;BME280;59146;43.850;25.948;2023-08-12T11:54:25;101444.81;;;29.62;32.09
71344;BME280;59146;43.850;25.948;2023-08-12T11:56:51;101443.66;;;29.50;32.92
71344;BME280;59146;43.850;25.948;2023-08-12T11:59:17;101386.66;;;29.40;32.77
71344;BME280;59146;43.850;25.948;2023-08-12T12:01:46;101424.78;;;29.71;31.47
71344;BME280;59146;43.850;25.948;2023-08-12T12:04:14;101442.53;;;30.14;30.66
71344;BME280;59146;43.850;25.948;2023-08-12T12:06:41;101406.09;;;29.84;32.45
71344;BME280;59146;43.850;25.948;2023-08-12T12:09:08;101424.78;;;29.71;32.47
71344;BME280;59146;43.850;25.948;2023-08-12T12:11:38;101417.72;;;29.63;31.31
71344;BME280;59146;43.850;25.948;2023-08-12T12:14:05;101406.41;;;29.74;30.68
71344;BME280;59146;43.850;25.948;2023-08-12T12:16:41;101413.28;;;29.56;30.34
71344;BME280;59146;43.850;25.948;2023-08-12T12:19:23;101431.88;;;29.72;30.26
71344;BME280;59146;43.850;25.948;2023-08-12T12:21:50;101409.38;;;29.58;30.19
71344;BME280;59146;43.850;25.948;2023-08-12T12:24:16;101326.47;;;29.20;30.42
71344;BME280;59146;43.850;25.948;2023-08-12T12:26:43;101374.53;;;29.50;30.65
71344;BME280;59146;43.850;25.948;2023-08-12T12:29:10;101419.97;;;29.88;32.41
71344;BME280;59146;43.850;25.948;2023-08-12T12:31:37;101389.75;;;29.64;31.91
71344;BME280;59146;43.850;25.948;2023-08-12T12:34:03;101431.81;;;30.21;31.41
71344;BME280;59146;43.850;25.948;2023-08-12T12:36:30;101369.91;;;29.93;31.01
71344;BME280;59146;43.850;25.948;2023-08-12T12:38:56;101378.28;;;30.11;29.93
71344;BME280;59146;43.850;25.948;2023-08-12T12:41:21;101389.38;;;30.29;29.29
71344;BME280;59146;43.850;25.948;2023-08-12T12:43:47;101399.47;;;30.55;29.52